Lascar, Colorado
Current Conditions -  °F | °C
As of 4:53 PM on Monday 20 Oct 2014 (Local Time) from KPUB Reporting Station
Clear Clear  
Wind Chill: 74°   Ceiling: Unl
Heat Index: 74°   Visibility: 10mi
Dew Point: 33°   Wind: 12mph
Humidity: 22%   Direction: 140°SE
Pressure: 30.09"   Gusts: NA
Location:  37.9584°N, 104.823°W
Report Text: KPUB 202253Z 14010KT 10SM CLR 23/01 A3009 RMK AO2 SLP149 T02330006
Loading
Personal Weather Stations






























Interactive Weather Map
Tropical Storm Tracking
New forecast layout! Learn more

10-Day Weather Forecast

Advertisements
Track Severe Weather on mobile